Summitville, IN (46070)

8:58 AM EST on January 19, 2017 (GMT -0500)
Alexandria Fred 2 | | Change Station

Elev 871 ft 40.27 °N, 85.69 °W | Updated 1 second ago

Overcast
Overcast
34.7 °F
Feels Like 35 °F
N
2.0
Wind Variable Wind from SE

Today
High -- | Low -- °F
--% Chance of Precip.
Yesterday
High -- | Low -- °F
Precip. -- in
Pressure 30.07 in
Visibility 2.5 miles
Clouds Overcast 300 ft
Windchill 35 °F
Dew Point 33 °F
Humidity 93%
Rainfall 0.00 in
Snow Depth Not available.
8:01 AM 5:45 PM
Waning Gibbous, 53% visible
METAR KMZZ 191334Z AUTO 16005KT 2 1/2SM BR OVC003 01/01 A3007 RMK AO2
Pressure 30.07 in
Visibility 2.5 miles
Clouds Overcast 300 ft
Windchill 35 °F
Dew Point 33 °F
Humidity 93%
Rainfall 0.00 in
Snow Depth Not available.
8:01 AM 5:45 PM
Waning Gibbous, 53% visible
METAR KMZZ 191334Z AUTO 16005KT 2 1/2SM BR OVC003 01/01 A3007 RMK AO2

Get Your Daily Forecast Email!

Thanks for signing up!

Be on the lookout for a verification email in your inbox.

You'll start receiving the daily forecast at 8 AM.

×

10-Day Weather Forecast

Almanac

Astronomy

Jan. 19, 2017 Rise Set
Actual Time
Civil Twilight
Nautical Twilight
Astronomical Twilight
Moon
Length of Visible Light
Length of Day
Tomorrow will be .
, % of the Moon is Illuminated

Today's Extremes

State Highs State Lows

Community

WunderPhotos

Upload Photos

1,962,540 photos uploaded!

WunderBlog® & News

Nearby

Air Quality

  Air Quality AQ Index Pollutant
Not available.

Snow Depth

Station Depth Elevation

Earthquake Activity

City Distance Mag. Time & Date
Minimum magnitude displayed is 2.5.

Coastal Water Temperatures

Place Temperature

Stations

Nearby Weather Stations

Station Location Temp. Windchill Dew Point Humidity Wind Precip. Elev Updated Type
                   

Watches & Warnings

There are currently no watches in effect.